Black Watch — C6RS5 — position and weather

sailwx.info

Track history (hours):
 
Tides and Currents Weather Stations Pressure Air Temp Water Temp Dewpoint Dewpoint Depression Visibility Wind Speed Wind Dir Waves Ship Positions

Black Watch

Last reported at 2018-Jun-19 05:32 UTC. Time now 2018-Jun-21 11:58 UTC.
Position N 55°55' W 007°09'.

Length 205 m; draft 7.5 m.

Type: Passenger vessel. MMSI: 311166000.

Date/timePositionNaut miles runAvg speedWind from/ knotsBaromVisibWave heightAir tempDewpointWater temp
2018-Jun-19 05:32N 55°55' W 007°09'115.9
2018-Jun-19 05:29N 55°55' W 007°08'816.6
2018-Jun-19 05:00N 55°49' W 006°58'917.3
2018-Jun-19 04:30N 55°43' W 006°47'918.5
2018-Jun-19 04:01N 55°37' W 006°35'917.6
2018-Jun-19 03:30N 55°31' W 006°24'816.7
2018-Jun-19 03:00N 55°26' W 006°12'815.7
2018-Jun-19 02:30N 55°22' W 005°60'815.2
2018-Jun-19 02:00N 55°16' W 005°52'715.0
2018-Jun-19 01:30N 55°10' W 005°45'815.8
2018-Jun-19 01:00N 55°03' W 005°38'1415.2
2018-Jun-19 00:06N 54°51' W 005°26'114.6
2018-Jun-19 00:01N 54°50' W 005°25'714.8
2018-Jun-18 23:31N 54°43' W 005°18'815.2
2018-Jun-18 23:01N 54°36' W 005°13'816.0
2018-Jun-18 22:31N 54°29' W 005°10'816.2
2018-Jun-18 22:01N 54°21' W 005°06'816.7
2018-Jun-18 21:31N 54°13' W 005°02'5316.7
2018-Jun-18 18:21N 53°40' W 003°52'618.5
2018-Jun-18 18:00N 53°37' W 003°42'1018.0
2018-Jun-18 17:29N 53°34' W 003°27'816.1
2018-Jun-18 17:00N 53°31' W 003°15'511.0
2018-Jun-18 16:30N 53°31' W 003°06'510.6
2018-Jun-18 16:00N 53°26' W 003°01'2 4.0
2018-Jun-18 15:30N 53°24' W 003°00'0 0.0
2018-Jun-18 14:54N 53°24' W 003°00'0 0.0
2018-Jun-18 14:30N 53°24' W 003°00'0 0.0
2018-Jun-18 13:57N 53°24' W 003°00'0 0.0
2018-Jun-18 13:30N 53°24' W 003°00'0 0.0
2018-Jun-18 13:00N 53°24' W 003°00'0 0.0
2018-Jun-18 12:30N 53°24' W 003°00'0 0.0
2018-Jun-18 12:00N 53°24' W 003°00'0 0.0
2018-Jun-18 11:24N 53°24' W 003°00'0 0.0
2018-Jun-18 11:00N 53°24' W 003°00'0 0.0
2018-Jun-18 10:30N 53°24' W 003°00'0 0.0
2018-Jun-18 10:00N 53°24' W 003°00'0 0.0
2018-Jun-18 09:30N 53°24' W 003°00'0 0.0
2018-Jun-18 09:00N 53°24' W 003°00'0 0.0
2018-Jun-18 08:30N 53°24' W 003°00'0 0.0
2018-Jun-18 08:00N 53°24' W 003°00'0 0.0
2018-Jun-18 07:27N 53°24' W 003°00'0 0.0
2018-Jun-18 06:57N 53°24' W 003°00'0 0.0
2018-Jun-18 06:30N 53°24' W 003°00'0 0.0
2018-Jun-18 06:00N 53°24' W 003°00'0 0.0
2018-Jun-18 05:30N 53°24' W 003°00'1 2.2
2018-Jun-18 05:00N 53°25' W 003°01'3 5.7
2018-Jun-18 04:30N 53°28' W 003°03'5 9.9
2018-Jun-18 04:00N 53°32' W 003°09'511.1
2018-Jun-18 03:30N 53°31' W 003°18'510.0
2018-Jun-18 03:00N 53°33' W 003°26'714.4
2018-Jun-18 02:30N 53°36' W 003°37'612.2
2018-Jun-18 02:00N 53°39' W 003°46'611.2
2018-Jun-18 01:30N 53°41' W 003°55'612.7
2018-Jun-18 01:00N 53°44' W 004°04'4114.3
2018-Jun-17 22:09N 54°08' W 005°00'214.8
2018-Jun-17 22:00N 54°10' W 005°01'714.6
2018-Jun-17 21:31N 54°17' W 005°04'815.3
2018-Jun-17 21:00N 54°24' W 005°08'815.2
2018-Jun-17 20:31N 54°32' W 005°11'714.7
2018-Jun-17 20:01N 54°39' W 005°13'714.5
2018-Jun-17 19:31N 54°45' W 005°20'713.7
2018-Jun-17 19:00N 54°51' W 005°27'713.3
2018-Jun-17 18:29N 54°56' W 005°35'2911.3
2018-Jun-17 15:54N 55°20' W 006°05'511.5
2018-Jun-17 15:30N 55°22' W 006°12'612.2
2018-Jun-17 15:00N 55°24' W 006°22'612.4
2018-Jun-17 14:30N 55°29' W 006°29'713.4
2018-Jun-17 14:00N 55°35' W 006°36'612.2
2018-Jun-17 13:31N 55°40' W 006°42'917.3
2018-Jun-17 13:00N 55°48' W 006°44'1018.3
2018-Jun-17 12:29N 55°58' W 006°44'22712.2
2018-Jun-16 17:51N 59°13' W 003°10'718.8
2018-Jun-16 17:29N 59°12' W 002°57'1020.0
2018-Jun-16 17:01N 59°05' W 002°45'612.1
2018-Jun-16 16:30N 59°01' W 002°54'3 5.2
2018-Jun-16 16:00N 59°00' W 002°58'0 0.0
2018-Jun-16 15:29N 59°00' W 002°58'0 0.0
2018-Jun-16 14:56N 59°00' W 002°58'0 0.0
2018-Jun-16 14:26N 59°00' W 002°58'0 0.0
2018-Jun-16 13:59N 59°00' W 002°58'0 0.0
2018-Jun-16 13:29N 59°00' W 002°58'0 0.0
2018-Jun-16 12:59N 59°00' W 002°58'0 0.0
2018-Jun-16 12:29N 59°00' W 002°58'0 0.0
2018-Jun-16 11:59N 59°00' W 002°58'0 0.0
2018-Jun-16 11:29N 59°00' W 002°58'0 0.0
2018-Jun-16 10:59N 59°00' W 002°58'0 0.0
2018-Jun-16 10:29N 59°00' W 002°58'0 0.0
2018-Jun-16 09:59N 59°00' W 002°58'0 0.0
2018-Jun-16 09:29N 59°00' W 002°58'0 0.0
2018-Jun-16 08:59N 59°00' W 002°58'0 0.0
2018-Jun-16 08:29N 59°00' W 002°58'0 0.0
2018-Jun-16 07:59N 59°00' W 002°58'0 0.0
2018-Jun-16 07:29N 59°00' W 002°58'0 0.0
2018-Jun-16 06:59N 59°00' W 002°58'0 0.0
2018-Jun-16 06:29N 59°00' W 002°58'0 0.7
2018-Jun-16 06:00N 59°00' W 002°58'3 6.4
2018-Jun-16 05:30N 59°01' W 002°52'611.7
2018-Jun-16 04:58N 58°59' W 002°40'714.5
2018-Jun-16 04:29N 58°54' W 002°32'12015.3
2018-Jun-15 20:42N 56°58' W 001°34'418.7
2018-Jun-15 20:29N 56°55' W 001°37'3416.9
2018-Jun-15 18:28N 56°31' W 002°21'715.3
2018-Jun-15 18:00N 56°29' W 002°33'611.5
2018-Jun-15 17:31N 56°27' W 002°43'713.5
2018-Jun-15 16:58N 56°28' W 002°57'0 0.4
2018-Jun-15 16:23N 56°28' W 002°57'0 0.0
2018-Jun-15 04:08N 56°28' W 002°57'3 5.6
2018-Jun-15 03:37N 56°27' W 002°52'113.1
2018-Jun-15 03:30N 56°27' W 002°49'713.8
2018-Jun-15 03:00N 56°28' W 002°37'4 7.3
2018-Jun-15 02:28N 56°30' W 002°31'4 9.0
2018-Jun-15 01:59N 56°32' W 002°23'811.4
2018-Jun-15 01:17N 56°37' W 002°12'1513.9
2018-Jun-15 00:12N 56°51' W 002°03'314.1
2018-Jun-15 00:00N 56°54' W 002°01'713.6
2018-Jun-14 23:30N 57°00' W 001°56'713.3
2018-Jun-14 23:00N 57°06' W 001°51'713.3
2018-Jun-14 22:30N 57°12' W 001°46'713.1
2018-Jun-14 21:57N 57°19' W 001°41'612.9
2018-Jun-14 21:30N 57°24' W 001°36'612.4
2018-Jun-14 21:00N 57°30' W 001°32'612.2
2018-Jun-14 20:30N 57°36' W 001°33'2 0.0
2018-Jun-13 01:37N 57°34' W 001°33'216.3
2018-Jun-13 01:30N 57°32' W 001°31'3115.0
2018-Jun-12 23:26N 57°01' W 001°43'1016.3
2018-Jun-12 22:50N 56°53' W 001°51'5115.7
2018-Jun-12 19:34N 56°07' W 002°35'117.0
2018-Jun-12 19:30N 56°07' W 002°37'817.0
2018-Jun-12 19:00N 56°07' W 002°52'917.0
2018-Jun-12 18:30N 56°04' W 003°06'612.7
2018-Jun-12 18:00N 56°02' W 003°17'  
2018-Jun-10 04:16N 56°00' W 003°24'2 6.7
2018-Jun-10 04:00N 56°01' W 003°21'713.5
2018-Jun-10 03:30N 56°03' W 003°10'713.3
2018-Jun-10 03:00N 56°04' W 002°58'611.3
2018-Jun-10 02:30N 56°07' W 002°50'612.6
2018-Jun-10 02:00N 56°07' W 002°38'714.4
2018-Jun-10 01:30N 56°09' W 002°26'4 7.9
2018-Jun-10 01:00N 56°12' W 002°21'4 8.0
2018-Jun-10 00:30N 56°16' W 002°19'4 8.1
2018-Jun-10 00:00N 56°19' W 002°15'4 8.3
2018-Jun-09 23:30N 56°23' W 002°11'5 9.0
2018-Jun-09 23:00N 56°27' W 002°06'29 9.7
2018-Jun-09 20:02N 56°51' W 001°38'2 7.6
2018-Jun-09 19:46N 56°52' W 001°36'312.1
2018-Jun-09 19:30N 56°55' W 001°32'  
Track history (hours):
 
Tides and Currents Weather Stations Pressure Air Temp Water Temp Dewpoint Dewpoint Depression Visibility Wind Speed Wind Dir Waves Ship Positions

Black Watch

Last reported at 2018-Jun-19 05:32 UTC. Time now 2018-Jun-21 11:58 UTC.
Position N 55°55' W 007°09'.

Length 205 m; draft 7.5 m.

Type: Passenger vessel. MMSI: 311166000.

Date/timePositionNaut miles runAvg speedWind from/ knotsBaromVisibWave heightAir tempDewpointWater temp
2018-Jun-19 05:32N 55°55' W 007°09'115.9
2018-Jun-19 05:29N 55°55' W 007°08'816.6
2018-Jun-19 05:00N 55°49' W 006°58'917.3
2018-Jun-19 04:30N 55°43' W 006°47'918.5
2018-Jun-19 04:01N 55°37' W 006°35'917.6
2018-Jun-19 03:30N 55°31' W 006°24'816.7
2018-Jun-19 03:00N 55°26' W 006°12'815.7
2018-Jun-19 02:30N 55°22' W 005°60'815.2
2018-Jun-19 02:00N 55°16' W 005°52'715.0
2018-Jun-19 01:30N 55°10' W 005°45'815.8
2018-Jun-19 01:00N 55°03' W 005°38'1415.2
2018-Jun-19 00:06N 54°51' W 005°26'114.6
2018-Jun-19 00:01N 54°50' W 005°25'714.8
2018-Jun-18 23:31N 54°43' W 005°18'815.2
2018-Jun-18 23:01N 54°36' W 005°13'816.0
2018-Jun-18 22:31N 54°29' W 005°10'816.2
2018-Jun-18 22:01N 54°21' W 005°06'816.7
2018-Jun-18 21:31N 54°13' W 005°02'5316.7
2018-Jun-18 18:21N 53°40' W 003°52'618.5
2018-Jun-18 18:00N 53°37' W 003°42'1018.0
2018-Jun-18 17:29N 53°34' W 003°27'816.1
2018-Jun-18 17:00N 53°31' W 003°15'511.0
2018-Jun-18 16:30N 53°31' W 003°06'510.6
2018-Jun-18 16:00N 53°26' W 003°01'2 4.0
2018-Jun-18 15:30N 53°24' W 003°00'0 0.0
2018-Jun-18 14:54N 53°24' W 003°00'0 0.0
2018-Jun-18 14:30N 53°24' W 003°00'0 0.0
2018-Jun-18 13:57N 53°24' W 003°00'0 0.0
2018-Jun-18 13:30N 53°24' W 003°00'0 0.0
2018-Jun-18 13:00N 53°24' W 003°00'0 0.0
2018-Jun-18 12:30N 53°24' W 003°00'0 0.0
2018-Jun-18 12:00N 53°24' W 003°00'0 0.0
2018-Jun-18 11:24N 53°24' W 003°00'0 0.0
2018-Jun-18 11:00N 53°24' W 003°00'0 0.0
2018-Jun-18 10:30N 53°24' W 003°00'0 0.0
2018-Jun-18 10:00N 53°24' W 003°00'0 0.0
2018-Jun-18 09:30N 53°24' W 003°00'0 0.0
2018-Jun-18 09:00N 53°24' W 003°00'0 0.0
2018-Jun-18 08:30N 53°24' W 003°00'0 0.0
2018-Jun-18 08:00N 53°24' W 003°00'0 0.0
2018-Jun-18 07:27N 53°24' W 003°00'0 0.0
2018-Jun-18 06:57N 53°24' W 003°00'0 0.0
2018-Jun-18 06:30N 53°24' W 003°00'0 0.0
2018-Jun-18 06:00N 53°24' W 003°00'0 0.0
2018-Jun-18 05:30N 53°24' W 003°00'1 2.2
2018-Jun-18 05:00N 53°25' W 003°01'3 5.7
2018-Jun-18 04:30N 53°28' W 003°03'5 9.9
2018-Jun-18 04:00N 53°32' W 003°09'511.1
2018-Jun-18 03:30N 53°31' W 003°18'510.0
2018-Jun-18 03:00N 53°33' W 003°26'714.4
2018-Jun-18 02:30N 53°36' W 003°37'612.2
2018-Jun-18 02:00N 53°39' W 003°46'611.2
2018-Jun-18 01:30N 53°41' W 003°55'612.7
2018-Jun-18 01:00N 53°44' W 004°04'4114.3
2018-Jun-17 22:09N 54°08' W 005°00'214.8
2018-Jun-17 22:00N 54°10' W 005°01'714.6
2018-Jun-17 21:31N 54°17' W 005°04'815.3
2018-Jun-17 21:00N 54°24' W 005°08'815.2
2018-Jun-17 20:31N 54°32' W 005°11'714.7
2018-Jun-17 20:01N 54°39' W 005°13'714.5
2018-Jun-17 19:31N 54°45' W 005°20'713.7
2018-Jun-17 19:00N 54°51' W 005°27'713.3
2018-Jun-17 18:29N 54°56' W 005°35'2911.3
2018-Jun-17 15:54N 55°20' W 006°05'511.5
2018-Jun-17 15:30N 55°22' W 006°12'612.2
2018-Jun-17 15:00N 55°24' W 006°22'612.4
2018-Jun-17 14:30N 55°29' W 006°29'713.4
2018-Jun-17 14:00N 55°35' W 006°36'612.2
2018-Jun-17 13:31N 55°40' W 006°42'917.3
2018-Jun-17 13:00N 55°48' W 006°44'1018.3
2018-Jun-17 12:29N 55°58' W 006°44'22712.2
2018-Jun-16 17:51N 59°13' W 003°10'718.8
2018-Jun-16 17:29N 59°12' W 002°57'1020.0
2018-Jun-16 17:01N 59°05' W 002°45'612.1
2018-Jun-16 16:30N 59°01' W 002°54'3 5.2
2018-Jun-16 16:00N 59°00' W 002°58'0 0.0
2018-Jun-16 15:29N 59°00' W 002°58'0 0.0
2018-Jun-16 14:56N 59°00' W 002°58'0 0.0
2018-Jun-16 14:26N 59°00' W 002°58'0 0.0
2018-Jun-16 13:59N 59°00' W 002°58'0 0.0
2018-Jun-16 13:29N 59°00' W 002°58'0 0.0
2018-Jun-16 12:59N 59°00' W 002°58'0 0.0
2018-Jun-16 12:29N 59°00' W 002°58'0 0.0
2018-Jun-16 11:59N 59°00' W 002°58'0 0.0
2018-Jun-16 11:29N 59°00' W 002°58'0 0.0
2018-Jun-16 10:59N 59°00' W 002°58'0 0.0
2018-Jun-16 10:29N 59°00' W 002°58'0 0.0
2018-Jun-16 09:59N 59°00' W 002°58'0 0.0
2018-Jun-16 09:29N 59°00' W 002°58'0 0.0
2018-Jun-16 08:59N 59°00' W 002°58'0 0.0
2018-Jun-16 08:29N 59°00' W 002°58'0 0.0
2018-Jun-16 07:59N 59°00' W 002°58'0 0.0
2018-Jun-16 07:29N 59°00' W 002°58'0 0.0
2018-Jun-16 06:59N 59°00' W 002°58'0 0.0
2018-Jun-16 06:29N 59°00' W 002°58'0 0.7
2018-Jun-16 06:00N 59°00' W 002°58'3 6.4
2018-Jun-16 05:30N 59°01' W 002°52'611.7
2018-Jun-16 04:58N 58°59' W 002°40'714.5
2018-Jun-16 04:29N 58°54' W 002°32'12015.3
2018-Jun-15 20:42N 56°58' W 001°34'418.7
2018-Jun-15 20:29N 56°55' W 001°37'3416.9
2018-Jun-15 18:28N 56°31' W 002°21'715.3
2018-Jun-15 18:00N 56°29' W 002°33'611.5
2018-Jun-15 17:31N 56°27' W 002°43'713.5
2018-Jun-15 16:58N 56°28' W 002°57'0 0.4
2018-Jun-15 16:23N 56°28' W 002°57'0 0.0
2018-Jun-15 04:08N 56°28' W 002°57'3 5.6
2018-Jun-15 03:37N 56°27' W 002°52'113.1
2018-Jun-15 03:30N 56°27' W 002°49'713.8
2018-Jun-15 03:00N 56°28' W 002°37'4 7.3
2018-Jun-15 02:28N 56°30' W 002°31'4 9.0
2018-Jun-15 01:59N 56°32' W 002°23'811.4
2018-Jun-15 01:17N 56°37' W 002°12'1513.9
2018-Jun-15 00:12N 56°51' W 002°03'314.1
2018-Jun-15 00:00N 56°54' W 002°01'713.6
2018-Jun-14 23:30N 57°00' W 001°56'713.3
2018-Jun-14 23:00N 57°06' W 001°51'713.3
2018-Jun-14 22:30N 57°12' W 001°46'713.1
2018-Jun-14 21:57N 57°19' W 001°41'612.9
2018-Jun-14 21:30N 57°24' W 001°36'612.4
2018-Jun-14 21:00N 57°30' W 001°32'612.2
2018-Jun-14 20:30N 57°36' W 001°33'2 0.0
2018-Jun-13 01:37N 57°34' W 001°33'216.3
2018-Jun-13 01:30N 57°32' W 001°31'3115.0
2018-Jun-12 23:26N 57°01' W 001°43'1016.3
2018-Jun-12 22:50N 56°53' W 001°51'5115.7
2018-Jun-12 19:34N 56°07' W 002°35'117.0
2018-Jun-12 19:30N 56°07' W 002°37'817.0
2018-Jun-12 19:00N 56°07' W 002°52'917.0
2018-Jun-12 18:30N 56°04' W 003°06'612.7
2018-Jun-12 18:00N 56°02' W 003°17'  
2018-Jun-10 04:16N 56°00' W 003°24'2 6.7
2018-Jun-10 04:00N 56°01' W 003°21'713.5
2018-Jun-10 03:30N 56°03' W 003°10'713.3
2018-Jun-10 03:00N 56°04' W 002°58'611.3
2018-Jun-10 02:30N 56°07' W 002°50'612.6
2018-Jun-10 02:00N 56°07' W 002°38'714.4
2018-Jun-10 01:30N 56°09' W 002°26'4 7.9
2018-Jun-10 01:00N 56°12' W 002°21'4 8.0
2018-Jun-10 00:30N 56°16' W 002°19'4 8.1
2018-Jun-10 00:00N 56°19' W 002°15'4 8.3
2018-Jun-09 23:30N 56°23' W 002°11'5 9.0
2018-Jun-09 23:00N 56°27' W 002°06'29 9.7
2018-Jun-09 20:02N 56°51' W 001°38'2 7.6
2018-Jun-09 19:46N 56°52' W 001°36'312.1
2018-Jun-09 19:30N 56°55' W 001°32'  

Dump ship's entire track history